Joensuu, Finland

10:57 AM EEST on September 05, 2015 (GMT +0300)
Woods | | Change Station
CLOSE
Current Station
Personal Weather Station
Location: Kontiolahti, ITa-SUOMI
Elevation: 295 ft
Nearby Weather Stations

Elev 295 ft 62.69 °N, 29.82 °E | Updated 47 seconds ago

Mostly Cloudy
Mostly Cloudy
56.5 °F
Feels Like 56.5 °F
N
6.0
Wind Variable Wind from NNE
Gusts 6.0 mph

Today
High -- | Low -- °F
--% Chance of Precip.
Yesterday
High -- | Low -- °F
Precip. -- in
5:58 AM 8:00 PM
Waning Gibbous, 51% visible
Pressure 29.68 in
Visibility 6.2 miles
Clouds Mostly Cloudy 900 ft
Dew Point 54 °F
Humidity 90%
Rainfall 0.00 in
Snow Depth Not available.
UV 2 out of 12
Pollen Not available.
Air Quality Not available.
Flu Activity Not available.
METAR EFJO 050750Z 13007KT 090V180 9999 BKN009 13/12 Q1005
Pressure 29.68 in
Visibility 6.2 miles
Clouds Mostly Cloudy 900 ft
Dew Point 54 °F
Humidity 90%
Rainfall 0.00 in
Snow Depth Not available.
UV 2 out of 12
Pollen Not available.
Air Quality Not available.
Flu Activity Not available.
METAR EFJO 050750Z 13007KT 090V180 9999 BKN009 13/12 Q1005

10-Day Weather Forecast

×

Almanac

Astronomy

Sep. 05, 2015 Rise Set
Actual Time
Civil Twilight
Nautical Twilight
Astronomical Twilight
Moon
Length of Visible Light
Length of Day
Tomorrow will be .
, % of the Moon is Illuminated

Today's Extremes

Country Highs Country Lows

Community

WunderPhotos

Upload Photos

1,852,437 photos uploaded!

WunderBlogs® & News

Nearby

Air Quality

  Air Quality AQ Index Pollutant
Not available.

Snow Depth

Station Depth Elevation

Earthquake Activity

City Distance Mag. Time & Date
Minimum magnitude displayed is 2.5.

Coastal Water Temperatures

Place Temperature

Stations

Nearby Weather Stations

Station Location Temp. Windchill Dew Point Humidity Wind Precip. Elev Updated Type